createdAt,value
2019-05-22T00:01:34.096Z,71.69
2019-05-22T00:04:45.119Z,71.52
2019-05-22T00:07:24.014Z,71.53
2019-05-22T00:10:03.220Z,73.16
2019-05-22T00:12:46.551Z,72.82
2019-05-22T00:15:23.864Z,72.90
2019-05-22T00:18:02.793Z,73.12
2019-05-22T00:20:42.714Z,72.26
2019-05-22T00:23:20.139Z,69.87
2019-05-22T00:25:57.324Z,69.17
2019-05-22T00:28:35.591Z,68.71
2019-05-22T00:31:15.861Z,68.94
2019-05-22T00:33:53.409Z,68.46
2019-05-22T00:36:32.844Z,68.53
2019-05-22T00:39:11.343Z,68.39
2019-05-22T00:41:52.917Z,67.97
2019-05-22T00:44:30.507Z,67.39
2019-05-22T00:47:14.413Z,67.21
2019-05-22T00:49:53.356Z,68.34
2019-05-22T00:52:56.437Z,67.36
2019-05-22T00:55:50.513Z,66.73
2019-05-22T00:58:49.184Z,65.95
2019-05-22T01:01:38.890Z,65.78
2019-05-22T01:04:23.147Z,65.60
2019-05-22T01:07:01.967Z,65.34
2019-05-22T01:09:43.703Z,65.36
2019-05-22T01:12:34.566Z,65.15
2019-05-22T01:15:16.226Z,64.50
2019-05-22T01:17:55.215Z,64.90
2019-05-22T01:20:34.965Z,64.68
2019-05-22T01:23:14.237Z,64.37
2019-05-22T01:25:53.147Z,63.79
2019-05-22T01:28:31.259Z,64.12
2019-05-22T01:31:17.083Z,63.98
2019-05-22T01:34:23.033Z,63.02
2019-05-22T01:37:06.160Z,62.58
2019-05-22T01:39:59.982Z,64.26
2019-05-22T01:42:51.004Z,62.81
2019-05-22T01:45:29.279Z,59.74
2019-05-22T01:48:13.028Z,59.73
2019-05-22T01:50:56.706Z,60.06
2019-05-22T01:53:39.206Z,62.29
2019-05-22T01:56:20.782Z,62.62
2019-05-22T01:58:59.059Z,62.38
2019-05-22T02:01:36.623Z,62.37
2019-05-22T02:04:15.104Z,61.77
2019-05-22T02:06:53.865Z,61.48
2019-05-22T02:09:38.612Z,60.97
2019-05-22T02:12:26.458Z,61.27
2019-05-22T02:15:04.262Z,62.36
2019-05-22T02:17:42.218Z,61.59
2019-05-22T02:20:24.059Z,61.99
2019-05-22T02:23:01.137Z,60.97
2019-05-22T02:25:38.975Z,59.88
2019-05-22T02:28:17.886Z,60.24
2019-05-22T02:30:57.223Z,58.40
2019-05-22T02:33:36.552Z,60.03
2019-05-22T02:36:14.280Z,60.28
2019-05-22T02:38:53.125Z,61.39
2019-05-22T02:41:37.379Z,62.20
2019-05-22T02:44:15.006Z,61.83
2019-05-22T02:50:09.251Z,62.82
2019-05-22T02:52:47.695Z,62.70
2019-05-22T02:55:25.008Z,63.13
2019-05-22T02:58:02.918Z,62.99
2019-05-22T03:00:51.980Z,62.23
2019-05-22T03:03:30.545Z,61.00
2019-05-22T03:06:11.528Z,60.29
2019-05-22T03:09:12.243Z,58.68
2019-05-22T03:11:53.258Z,58.65
2019-05-22T03:14:34.154Z,59.45
2019-05-22T03:17:19.770Z,59.01
2019-05-22T03:19:57.993Z,60.34
2019-05-22T03:22:45.440Z,59.15
2019-05-22T03:25:24.780Z,59.83
2019-05-22T03:28:03.346Z,58.51
2019-05-22T03:30:43.331Z,58.58
2019-05-22T03:33:20.901Z,59.43
2019-05-22T03:36:12.375Z,59.01
2019-05-22T03:38:50.349Z,57.94
2019-05-22T03:41:29.201Z,57.90
2019-05-22T03:44:07.765Z,56.96
2019-05-22T03:46:49.249Z,57.38
2019-05-22T03:49:30.414Z,57.49
2019-05-22T03:52:07.334Z,56.78
2019-05-22T03:54:46.276Z,58.01
2019-05-22T03:57:24.124Z,57.26
2019-05-22T04:00:01.820Z,56.95
2019-05-22T04:02:40.694Z,57.72
2019-05-22T04:05:18.800Z,57.43
2019-05-22T04:07:59.745Z,56.79
2019-05-22T04:10:43.113Z,56.34
2019-05-22T04:13:20.256Z,56.88
2019-05-22T04:15:58.330Z,55.83
2019-05-22T04:18:37.031Z,56.38
2019-05-22T04:21:14.315Z,58.20
2019-05-22T04:23:52.328Z,57.52
2019-05-22T04:26:30.758Z,57.76
2019-05-22T04:29:12.945Z,57.97
2019-05-22T04:32:21.638Z,57.35
2019-05-22T04:34:59.941Z,56.58
2019-05-22T04:37:37.298Z,55.24
2019-05-22T04:40:53.013Z,52.65
2019-05-22T04:43:36.609Z,53.99
2019-05-22T04:46:14.809Z,53.55
2019-05-22T04:48:52.271Z,52.46
2019-05-22T04:51:33.798Z,52.02
2019-05-22T04:54:13.138Z,50.68
2019-05-22T04:56:52.527Z,51.48
2019-05-22T04:59:29.993Z,50.50
2019-05-22T05:02:08.735Z,50.54
2019-05-22T05:04:46.907Z,49.66
2019-05-22T05:07:24.615Z,49.83
2019-05-22T05:10:01.709Z,46.42
2019-05-22T05:12:42.134Z,48.34
2019-05-22T05:15:19.707Z,47.77
2019-05-22T05:17:57.425Z,45.53
2019-05-22T05:20:34.953Z,45.48
2019-05-22T05:23:12.887Z,46.18
2019-05-22T05:25:50.746Z,45.50
2019-05-22T05:28:29.490Z,45.34
2019-05-22T05:31:06.414Z,46.34
2019-05-22T05:34:01.629Z,48.09
2019-05-22T05:36:39.487Z,46.92
2019-05-22T05:40:02.279Z,46.95
2019-05-22T05:42:42.668Z,47.59
2019-05-22T05:45:20.620Z,46.90
2019-05-22T05:47:58.999Z,46.65
2019-05-22T05:50:40.218Z,47.00
2019-05-22T05:53:21.074Z,47.53
2019-05-22T05:56:18.259Z,47.07
2019-05-22T05:58:56.986Z,47.69
2019-05-22T06:01:41.309Z,48.12
2019-05-22T06:04:33.947Z,47.94
2019-05-22T06:07:25.346Z,47.12
2019-05-22T06:10:37.207Z,45.80
2019-05-22T06:13:14.455Z,43.92
2019-05-22T06:16:31.969Z,46.06
2019-05-22T06:19:11.501Z,46.05
2019-05-22T06:21:50.347Z,45.96
2019-05-22T06:24:37.988Z,46.60
2019-05-22T06:27:32.952Z,45.48
2019-05-22T06:30:16.210Z,47.78
2019-05-22T06:33:08.248Z,47.61
2019-05-22T06:35:46.039Z,48.05
2019-05-22T06:38:57.248Z,47.18
2019-05-22T06:41:38.466Z,47.50
2019-05-22T06:44:44.405Z,47.50
2019-05-22T06:47:26.614Z,47.41
2019-05-22T06:50:04.806Z,46.94
2019-05-22T06:52:42.274Z,46.11
2019-05-22T06:55:19.775Z,46.21
2019-05-22T06:57:56.867Z,45.63
2019-05-22T07:00:34.794Z,45.30
2019-05-22T07:03:13.237Z,44.64
2019-05-22T07:05:51.379Z,46.64
2019-05-22T07:08:29.233Z,45.17
2019-05-22T07:11:06.967Z,46.22
2019-05-22T07:13:47.493Z,47.17
2019-05-22T07:16:26.552Z,46.62
2019-05-22T07:19:05.183Z,46.93
2019-05-22T07:21:42.201Z,47.17
2019-05-22T07:24:21.074Z,47.32
2019-05-22T07:27:00.697Z,48.27
2019-05-22T07:29:38.402Z,47.72
2019-05-22T07:32:16.970Z,48.13
2019-05-22T07:34:55.170Z,48.32
2019-05-22T07:37:33.063Z,47.89
2019-05-22T07:40:11.509Z,46.75
2019-05-22T07:42:49.162Z,48.30
2019-05-22T07:45:30.544Z,47.31
2019-05-22T07:48:08.612Z,46.76
2019-05-22T07:50:49.165Z,47.22
2019-05-22T07:53:27.431Z,47.71
2019-05-22T07:56:08.639Z,47.06
2019-05-22T07:58:47.366Z,46.76
2019-05-22T08:01:24.981Z,45.53
2019-05-22T08:04:05.597Z,46.11
2019-05-22T08:06:44.624Z,47.29
2019-05-22T08:09:21.938Z,46.19
2019-05-22T08:11:59.690Z,46.51
2019-05-22T08:14:37.299Z,46.75
2019-05-22T08:17:16.131Z,46.41
2019-05-22T08:19:53.633Z,46.91
2019-05-22T08:22:32.366Z,46.47
2019-05-22T08:25:09.861Z,47.11
2019-05-22T08:27:48.038Z,48.30
2019-05-22T08:30:25.331Z,48.11
2019-05-22T08:33:04.653Z,49.44
2019-05-22T08:35:43.290Z,48.32
2019-05-22T08:38:21.254Z,48.85
2019-05-22T08:40:58.928Z,48.58
2019-05-22T08:44:03.223Z,48.25
2019-05-22T08:46:17.117Z,48.97
2019-05-22T08:48:56.001Z,48.94
2019-05-22T08:51:33.209Z,49.18
2019-05-22T08:54:10.994Z,48.75
2019-05-22T08:56:53.003Z,48.18
2019-05-22T08:59:28.938Z,47.31
2019-05-22T09:02:06.663Z,48.52
2019-05-22T09:04:44.347Z,47.36
2019-05-22T09:07:23.914Z,47.08
2019-05-22T09:10:02.551Z,46.42
2019-05-22T09:12:41.250Z,45.38
2019-05-22T09:15:19.655Z,46.79
2019-05-22T09:17:56.880Z,46.01
2019-05-22T09:20:48.668Z,46.79
2019-05-22T09:23:15.370Z,45.63
2019-05-22T09:25:52.547Z,46.67
2019-05-22T09:28:30.384Z,45.41
2019-05-22T09:31:09.383Z,46.75
2019-05-22T09:33:46.580Z,47.47
2019-05-22T09:36:24.851Z,46.59
2019-05-22T09:39:03.401Z,45.98
2019-05-22T09:41:42.072Z,45.33
2019-05-22T09:44:20.017Z,45.46
2019-05-22T09:46:59.461Z,45.89
2019-05-22T09:49:37.334Z,45.39
2019-05-22T09:52:15.943Z,45.75
2019-05-22T09:54:53.551Z,46.13
2019-05-22T09:57:31.246Z,46.70
2019-05-22T10:00:10.141Z,45.77
2019-05-22T10:02:49.157Z,44.92
2019-05-22T10:05:27.235Z,46.06
2019-05-22T10:08:05.924Z,45.69
2019-05-22T10:10:46.688Z,45.69
2019-05-22T10:13:29.012Z,45.73
2019-05-22T10:16:04.423Z,47.81
2019-05-22T10:18:41.591Z,50.49
2019-05-22T10:21:19.677Z,52.43
2019-05-22T10:23:58.649Z,53.40
2019-05-22T10:26:36.225Z,53.56
2019-05-22T10:29:14.423Z,53.83
2019-05-22T10:31:51.691Z,53.78
2019-05-22T10:34:31.179Z,53.67
2019-05-22T10:37:10.369Z,53.62
2019-05-22T10:39:48.435Z,53.46
2019-05-22T10:42:26.994Z,52.43
2019-05-22T10:45:05.796Z,52.29
2019-05-22T10:47:44.362Z,53.09
2019-05-22T10:50:22.490Z,54.09
2019-05-22T10:53:00.143Z,54.32
2019-05-22T10:55:38.925Z,54.28
2019-05-22T10:58:16.265Z,54.32
2019-05-22T11:00:54.458Z,54.41
2019-05-22T11:03:31.826Z,54.14
2019-05-22T11:06:09.971Z,53.94
2019-05-22T11:08:47.320Z,53.56
2019-05-22T11:11:25.177Z,53.90
2019-05-22T11:14:09.116Z,53.52
2019-05-22T11:16:44.390Z,54.38
2019-05-22T11:19:20.997Z,55.64
2019-05-22T11:21:59.001Z,56.94
2019-05-22T11:24:36.807Z,59.72
2019-05-22T11:27:14.807Z,59.81
2019-05-22T11:29:52.071Z,59.80
2019-05-22T11:32:30.428Z,60.42
2019-05-22T11:35:09.162Z,62.40
2019-05-22T11:37:47.585Z,63.65
2019-05-22T11:40:26.503Z,64.21
2019-05-22T11:43:04.141Z,64.91
2019-05-22T11:45:45.438Z,67.37
2019-05-22T11:48:23.708Z,70.51
2019-05-22T11:51:01.448Z,73.65
2019-05-22T11:53:39.712Z,75.18
2019-05-22T11:56:16.516Z,78.83
2019-05-22T11:58:54.453Z,82.10
2019-05-22T12:01:31.785Z,83.04
2019-05-22T12:04:10.446Z,83.26
2019-05-22T12:06:47.848Z,83.54
2019-05-22T12:09:26.566Z,83.89
2019-05-22T12:12:04.468Z,84.07
2019-05-22T12:14:41.959Z,85.04
2019-05-22T12:17:36.847Z,84.10
2019-05-22T12:20:01.028Z,84.48
2019-05-22T12:22:38.272Z,84.30
2019-05-22T12:25:16.949Z,83.96
2019-05-22T12:27:54.607Z,82.50
2019-05-22T12:30:32.792Z,82.70
2019-05-22T12:33:13.640Z,82.95
2019-05-22T12:35:50.757Z,82.48
2019-05-22T12:38:28.725Z,80.51
2019-05-22T12:41:07.617Z,82.30
2019-05-22T12:43:45.256Z,82.39
2019-05-22T12:46:23.416Z,81.93
2019-05-22T12:49:08.559Z,81.53
2019-05-22T12:51:44.281Z,82.17
2019-05-22T12:54:21.749Z,81.43
2019-05-22T12:56:59.290Z,81.90
2019-05-22T12:59:36.723Z,81.10
2019-05-22T13:02:15.941Z,80.61
2019-05-22T13:04:53.241Z,81.01
2019-05-22T13:07:30.728Z,83.09
2019-05-22T13:10:08.488Z,82.50
2019-05-22T13:12:47.343Z,82.22
2019-05-22T13:15:26.027Z,79.89
2019-05-22T13:18:03.526Z,77.35
2019-05-22T13:20:44.606Z,76.71
2019-05-22T13:23:25.849Z,75.48
2019-05-22T13:26:03.914Z,75.65
2019-05-22T13:28:42.235Z,76.00
2019-05-22T13:31:20.391Z,75.72
2019-05-22T13:33:59.670Z,76.62
2019-05-22T13:36:37.264Z,76.43
2019-05-22T13:39:14.848Z,76.63
2019-05-22T13:41:53.084Z,73.17
2019-05-22T13:44:31.732Z,73.44
2019-05-22T13:47:09.872Z,73.90
2019-05-22T13:49:47.854Z,73.49
2019-05-22T13:52:26.520Z,73.56
2019-05-22T13:55:06.273Z,75.33
2019-05-22T13:57:43.904Z,76.54
2019-05-22T14:00:23.231Z,75.44
2019-05-22T14:03:01.005Z,76.67
2019-05-22T14:05:40.588Z,73.20
2019-05-22T14:08:18.587Z,75.08
2019-05-22T14:10:56.784Z,73.45
2019-05-22T14:13:34.449Z,73.15
2019-05-22T14:16:13.368Z,74.69
2019-05-22T14:18:50.212Z,73.77
2019-05-22T14:21:27.881Z,74.21
2019-05-22T14:24:06.657Z,74.41
2019-05-22T14:26:45.576Z,75.33
2019-05-22T14:29:22.758Z,74.66
2019-05-22T14:32:00.638Z,73.96
2019-05-22T14:34:37.998Z,76.19
2019-05-22T14:37:16.226Z,75.80
2019-05-22T14:39:54.085Z,74.32
2019-05-22T14:42:31.823Z,74.28
2019-05-22T14:45:09.365Z,75.51
2019-05-22T14:47:48.638Z,75.87
2019-05-22T14:50:28.181Z,78.75
2019-05-22T14:53:05.527Z,77.64
2019-05-22T14:55:45.167Z,79.25
2019-05-22T14:58:23.725Z,79.52
2019-05-22T15:01:01.372Z,78.99
2019-05-22T15:03:38.814Z,78.20
2019-05-22T15:06:16.012Z,76.42
2019-05-22T15:08:54.468Z,76.56
2019-05-22T15:11:31.674Z,75.24
2019-05-22T15:14:09.480Z,73.10
2019-05-22T15:16:47.043Z,72.01
2019-05-22T15:19:26.517Z,74.20
2019-05-22T15:22:03.633Z,72.53
2019-05-22T15:24:42.116Z,71.52
2019-05-22T15:27:21.527Z,73.66
2019-05-22T15:30:00.107Z,72.06
2019-05-22T15:32:37.975Z,75.19
2019-05-22T15:35:15.947Z,72.72
2019-05-22T15:37:53.465Z,75.64
2019-05-22T15:40:31.771Z,75.68
2019-05-22T15:43:14.159Z,74.30
2019-05-22T15:45:49.639Z,76.39
2019-05-22T15:48:31.363Z,72.95
2019-05-22T15:51:15.266Z,73.06
2019-05-22T15:53:52.468Z,71.45
2019-05-22T15:56:31.509Z,73.47
2019-05-22T15:59:12.545Z,75.50
2019-05-22T16:01:50.356Z,72.69
2019-05-22T16:04:28.056Z,74.43
2019-05-22T16:07:06.329Z,74.44
2019-05-22T16:09:45.301Z,72.49
2019-05-22T16:12:22.974Z,72.27
2019-05-22T16:15:00.602Z,71.75
2019-05-22T16:17:41.629Z,71.78
2019-05-22T16:20:19.125Z,72.61
2019-05-22T16:22:58.156Z,72.30
2019-05-22T16:25:35.711Z,71.21
2019-05-22T16:28:13.348Z,70.94
2019-05-22T16:30:51.749Z,70.60
2019-05-22T16:33:31.184Z,69.45
2019-05-22T16:36:08.925Z,67.67
2019-05-22T16:38:46.741Z,70.03
2019-05-22T16:41:24.798Z,69.38
2019-05-22T16:44:03.392Z,70.08
2019-05-22T16:46:42.874Z,70.81
2019-05-22T16:49:20.793Z,70.32
2019-05-22T16:51:59.482Z,70.36
2019-05-22T16:54:37.772Z,69.37
2019-05-22T16:57:15.914Z,68.95
2019-05-22T16:59:53.571Z,70.00
2019-05-22T17:02:33.152Z,69.75
2019-05-22T17:05:12.309Z,70.48
2019-05-22T17:07:49.594Z,69.27
2019-05-22T17:10:28.462Z,68.18
2019-05-22T17:13:07.078Z,67.76
2019-05-22T17:15:48.743Z,67.61
2019-05-22T17:18:47.159Z,67.70
2019-05-22T17:21:15.645Z,67.94
2019-05-22T17:23:59.763Z,67.91
2019-05-22T17:26:38.984Z,68.38
2019-05-22T17:29:17.868Z,68.24
2019-05-22T17:31:55.527Z,68.31
2019-05-22T17:34:36.970Z,68.67
2019-05-22T17:37:20.532Z,67.81
2019-05-22T17:39:57.900Z,68.31
2019-05-22T17:42:35.457Z,68.09
2019-05-22T17:45:14.186Z,68.15
2019-05-22T17:47:52.207Z,67.83
2019-05-22T17:50:30.536Z,68.00
2019-05-22T17:53:09.043Z,68.55
2019-05-22T17:55:46.860Z,69.53
2019-05-22T17:58:29.764Z,67.48
2019-05-22T18:01:05.834Z,66.87
2019-05-22T18:03:43.672Z,67.66
2019-05-22T18:06:21.941Z,67.35
2019-05-22T18:09:00.481Z,66.64
2019-05-22T18:11:39.219Z,66.84
2019-05-22T18:14:17.254Z,67.45
2019-05-22T18:16:54.360Z,66.91
2019-05-22T18:19:32.984Z,66.59
2019-05-22T18:22:11.121Z,66.55
2019-05-22T18:24:48.893Z,68.13
2019-05-22T18:27:26.631Z,67.18
2019-05-22T18:30:05.146Z,67.52
2019-05-22T18:32:43.868Z,68.67
2019-05-22T18:35:21.947Z,68.23
2019-05-22T18:38:04.427Z,68.34
2019-05-22T18:40:40.062Z,68.44
2019-05-22T18:43:18.949Z,68.04
2019-05-22T18:45:57.164Z,67.69
2019-05-22T18:48:34.450Z,67.54
2019-05-22T18:51:12.869Z,68.05
2019-05-22T18:53:51.206Z,69.49
2019-05-22T18:56:28.791Z,70.33
2019-05-22T18:59:06.803Z,69.51
2019-05-22T19:01:45.815Z,71.04
2019-05-22T19:04:23.466Z,69.98
2019-05-22T19:07:01.264Z,68.85
2019-05-22T19:09:39.838Z,69.62
2019-05-22T19:12:19.691Z,69.58
2019-05-22T19:14:57.304Z,68.87
2019-05-22T19:17:34.221Z,69.75
2019-05-22T19:20:14.004Z,70.47
2019-05-22T19:23:00.067Z,70.33
2019-05-22T19:25:31.757Z,69.86
2019-05-22T19:28:09.095Z,70.66
2019-05-22T19:30:46.360Z,69.42
2019-05-22T19:33:24.006Z,70.60
2019-05-22T19:36:01.004Z,71.37
2019-05-22T19:38:42.791Z,71.57
2019-05-22T19:41:21.729Z,72.37
2019-05-22T19:43:59.631Z,72.75
2019-05-22T19:46:37.077Z,72.18
2019-05-22T19:49:14.890Z,72.42
2019-05-22T19:51:53.454Z,71.83
2019-05-22T19:54:32.282Z,71.00
2019-05-22T19:57:10.936Z,69.48
2019-05-22T19:59:49.346Z,69.82
2019-05-22T20:02:27.695Z,72.22
2019-05-22T20:05:06.287Z,72.41
2019-05-22T20:07:45.064Z,73.23
2019-05-22T20:10:22.670Z,74.02
2019-05-22T20:13:02.779Z,74.16
2019-05-22T20:15:44.913Z,73.43
2019-05-22T20:18:23.440Z,72.14
2019-05-22T20:21:01.305Z,70.23
2019-05-22T20:23:39.649Z,68.78
2019-05-22T20:26:18.227Z,71.08
2019-05-22T20:28:55.808Z,71.95
2019-05-22T20:31:37.128Z,70.52
2019-05-22T20:34:15.239Z,71.83
2019-05-22T20:36:53.129Z,72.08
2019-05-22T20:39:31.153Z,72.73
2019-05-22T20:42:11.219Z,72.66
2019-05-22T20:44:49.747Z,73.49
2019-05-22T20:47:29.464Z,72.85
2019-05-22T20:50:07.137Z,73.97
2019-05-22T20:52:45.363Z,73.84
2019-05-22T20:55:23.530Z,73.03
2019-05-22T20:58:01.067Z,72.29
2019-05-22T21:00:42.874Z,72.78
2019-05-22T21:03:21.743Z,72.53
2019-05-22T21:05:59.317Z,70.71
2019-05-22T21:08:39.219Z,71.28
2019-05-22T21:11:17.311Z,71.31
2019-05-22T21:13:55.016Z,71.54
2019-05-22T21:16:33.933Z,71.63
2019-05-22T21:19:14.846Z,71.56
2019-05-22T21:21:52.295Z,71.42
2019-05-22T21:24:36.454Z,72.92
2019-05-22T21:27:14.883Z,72.54
2019-05-22T21:29:53.679Z,73.58
2019-05-22T21:32:31.040Z,73.98
2019-05-22T21:35:09.151Z,72.91
2019-05-22T21:37:46.626Z,73.57
2019-05-22T21:40:25.343Z,73.93
2019-05-22T21:43:03.739Z,74.57
2019-05-22T21:45:41.811Z,73.71
2019-05-22T21:48:20.631Z,73.07
2019-05-22T21:50:59.528Z,72.48
2019-05-22T21:53:37.307Z,72.92
2019-05-22T21:56:16.860Z,72.98
2019-05-22T21:58:56.833Z,72.91
2019-05-22T22:01:58.121Z,74.28
2019-05-22T22:04:37.760Z,74.25
2019-05-22T22:07:15.624Z,74.42
2019-05-22T22:09:53.736Z,74.44
2019-05-22T22:12:31.873Z,74.50
2019-05-22T22:15:09.323Z,74.33
2019-05-22T22:17:49.408Z,74.40
2019-05-22T22:20:27.726Z,74.32
2019-05-22T22:23:08.991Z,74.14
2019-05-22T22:25:47.358Z,73.37
2019-05-22T22:28:26.455Z,72.96
2019-05-22T22:31:07.631Z,73.29
2019-05-22T22:33:49.420Z,73.23
2019-05-22T22:36:26.953Z,73.51
2019-05-22T22:39:04.740Z,73.16
2019-05-22T22:41:42.324Z,73.34
2019-05-22T22:44:22.356Z,73.83
2019-05-22T22:47:02.685Z,73.25
2019-05-22T22:49:41.520Z,73.47
2019-05-22T22:52:22.062Z,73.83
2019-05-22T22:55:00.773Z,74.01
2019-05-22T22:57:39.391Z,73.49
2019-05-22T23:00:20.275Z,74.33
2019-05-22T23:02:58.452Z,74.87
2019-05-22T23:05:39.119Z,75.27
2019-05-22T23:08:22.981Z,73.85
2019-05-22T23:11:02.633Z,73.34
2019-05-22T23:13:41.859Z,73.55
2019-05-22T23:16:22.379Z,73.68
2019-05-22T23:19:48.211Z,73.27
2019-05-22T23:22:27.725Z,72.78
2019-05-22T23:25:07.957Z,72.87
2019-05-22T23:27:47.364Z,73.85
2019-05-22T23:30:24.971Z,73.38
2019-05-22T23:33:03.665Z,74.47
2019-05-22T23:35:41.406Z,73.46
2019-05-22T23:38:22.580Z,73.19
2019-05-22T23:41:00.178Z,73.91
2019-05-22T23:43:37.828Z,72.55
2019-05-22T23:46:16.559Z,70.75
2019-05-22T23:48:54.954Z,70.54
2019-05-22T23:51:32.422Z,71.36
2019-05-22T23:54:12.577Z,71.31
2019-05-22T23:56:50.666Z,68.79
2019-05-22T23:59:32.474Z,68.60
